sensor_id;sensor_type;location;lat;lon;timestamp;P1;durP1;ratioP1;P2;durP2;ratioP2
27201;SDS011;14717;46.924;15.474;2023-07-20T00:01:27;4.43;;;2.60;;
27201;SDS011;14717;46.924;15.474;2023-07-20T00:03:53;4.93;;;2.55;;
27201;SDS011;14717;46.924;15.474;2023-07-20T00:06:24;5.45;;;2.90;;
27201;SDS011;14717;46.924;15.474;2023-07-20T00:08:52;6.68;;;3.13;;
27201;SDS011;14717;46.924;15.474;2023-07-20T00:11:21;5.22;;;2.47;;
27201;SDS011;14717;46.924;15.474;2023-07-20T00:13:51;4.45;;;2.65;;
27201;SDS011;14717;46.924;15.474;2023-07-20T00:16:16;8.45;;;3.00;;
27201;SDS011;14717;46.924;15.474;2023-07-20T00:18:42;7.40;;;3.53;;
27201;SDS011;14717;46.924;15.474;2023-07-20T00:21:07;4.35;;;2.63;;
27201;SDS011;14717;46.924;15.474;2023-07-20T00:23:33;5.93;;;2.75;;
27201;SDS011;14717;46.924;15.474;2023-07-20T00:25:58;6.78;;;2.65;;
27201;SDS011;14717;46.924;15.474;2023-07-20T00:28:23;5.57;;;2.65;;
27201;SDS011;14717;46.924;15.474;2023-07-20T00:30:49;5.10;;;2.70;;
27201;SDS011;14717;46.924;15.474;2023-07-20T00:33:16;7.65;;;2.80;;
27201;SDS011;14717;46.924;15.474;2023-07-20T00:35:42;7.20;;;2.60;;
27201;SDS011;14717;46.924;15.474;2023-07-20T00:38:07;6.65;;;2.70;;
27201;SDS011;14717;46.924;15.474;2023-07-20T00:40:36;4.75;;;3.00;;
27201;SDS011;14717;46.924;15.474;2023-07-20T00:43:05;7.00;;;2.47;;
27201;SDS011;14717;46.924;15.474;2023-07-20T00:45:31;6.65;;;3.17;;
27201;SDS011;14717;46.924;15.474;2023-07-20T00:47:58;4.20;;;2.42;;
27201;SDS011;14717;46.924;15.474;2023-07-20T00:50:24;6.15;;;3.30;;
27201;SDS011;14717;46.924;15.474;2023-07-20T00:52:51;5.50;;;2.88;;
27201;SDS011;14717;46.924;15.474;2023-07-20T00:55:17;4.50;;;2.47;;
27201;SDS011;14717;46.924;15.474;2023-07-20T00:57:44;7.28;;;3.05;;
27201;SDS011;14717;46.924;15.474;2023-07-20T01:00:09;5.97;;;2.80;;
27201;SDS011;14717;46.924;15.474;2023-07-20T01:02:35;5.55;;;2.60;;
27201;SDS011;14717;46.924;15.474;2023-07-20T01:05:01;6.68;;;2.63;;
27201;SDS011;14717;46.924;15.474;2023-07-20T01:07:31;4.28;;;2.85;;
27201;SDS011;14717;46.924;15.474;2023-07-20T01:10:08;5.38;;;2.78;;
27201;SDS011;14717;46.924;15.474;2023-07-20T01:12:41;5.82;;;2.70;;
27201;SDS011;14717;46.924;15.474;2023-07-20T01:15:08;7.72;;;2.50;;
27201;SDS011;14717;46.924;15.474;2023-07-20T01:17:34;3.88;;;2.47;;
27201;SDS011;14717;46.924;15.474;2023-07-20T01:20:00;5.43;;;2.67;;
27201;SDS011;14717;46.924;15.474;2023-07-20T01:22:32;5.35;;;2.65;;
27201;SDS011;14717;46.924;15.474;2023-07-20T01:33:50;6.35;;;2.65;;
27201;SDS011;14717;46.924;15.474;2023-07-20T01:36:17;4.85;;;2.47;;
27201;SDS011;14717;46.924;15.474;2023-07-20T01:38:43;6.20;;;2.80;;
27201;SDS011;14717;46.924;15.474;2023-07-20T01:41:10;5.57;;;2.85;;
27201;SDS011;14717;46.924;15.474;2023-07-20T01:43:36;4.60;;;2.63;;
27201;SDS011;14717;46.924;15.474;2023-07-20T01:46:02;6.57;;;2.60;;
27201;SDS011;14717;46.924;15.474;2023-07-20T01:48:27;5.15;;;2.78;;
27201;SDS011;14717;46.924;15.474;2023-07-20T01:50:52;7.60;;;3.55;;
27201;SDS011;14717;46.924;15.474;2023-07-20T01:53:18;7.78;;;2.95;;
27201;SDS011;14717;46.924;15.474;2023-07-20T01:55:43;4.97;;;2.80;;
27201;SDS011;14717;46.924;15.474;2023-07-20T01:58:09;4.82;;;2.47;;
27201;SDS011;14717;46.924;15.474;2023-07-20T02:00:36;4.60;;;2.80;;
27201;SDS011;14717;46.924;15.474;2023-07-20T02:03:02;6.93;;;2.83;;
27201;SDS011;14717;46.924;15.474;2023-07-20T02:05:27;4.32;;;2.78;;
27201;SDS011;14717;46.924;15.474;2023-07-20T02:07:52;8.10;;;2.97;;
27201;SDS011;14717;46.924;15.474;2023-07-20T02:10:18;7.28;;;2.70;;
27201;SDS011;14717;46.924;15.474;2023-07-20T02:12:43;4.82;;;2.53;;
27201;SDS011;14717;46.924;15.474;2023-07-20T02:15:09;6.03;;;2.95;;
27201;SDS011;14717;46.924;15.474;2023-07-20T02:17:35;5.40;;;2.55;;
27201;SDS011;14717;46.924;15.474;2023-07-20T02:20:00;6.57;;;2.80;;
27201;SDS011;14717;46.924;15.474;2023-07-20T02:22:26;4.60;;;2.47;;
27201;SDS011;14717;46.924;15.474;2023-07-20T02:24:51;4.78;;;2.90;;
27201;SDS011;14717;46.924;15.474;2023-07-20T02:27:16;5.07;;;2.70;;
27201;SDS011;14717;46.924;15.474;2023-07-20T02:29:42;8.68;;;2.90;;
27201;SDS011;14717;46.924;15.474;2023-07-20T02:32:08;4.15;;;2.65;;
27201;SDS011;14717;46.924;15.474;2023-07-20T02:34:34;4.47;;;2.75;;
27201;SDS011;14717;46.924;15.474;2023-07-20T02:37:00;5.10;;;2.50;;
27201;SDS011;14717;46.924;15.474;2023-07-20T02:39:29;7.20;;;2.33;;
27201;SDS011;14717;46.924;15.474;2023-07-20T02:41:54;8.98;;;2.90;;
27201;SDS011;14717;46.924;15.474;2023-07-20T02:44:20;6.68;;;2.70;;
27201;SDS011;14717;46.924;15.474;2023-07-20T02:46:45;5.00;;;2.97;;
27201;SDS011;14717;46.924;15.474;2023-07-20T02:49:11;5.60;;;2.63;;
27201;SDS011;14717;46.924;15.474;2023-07-20T02:51:36;6.85;;;2.83;;
27201;SDS011;14717;46.924;15.474;2023-07-20T02:54:02;6.32;;;2.60;;
27201;SDS011;14717;46.924;15.474;2023-07-20T02:56:28;5.03;;;2.50;;
27201;SDS011;14717;46.924;15.474;2023-07-20T02:58:54;5.82;;;2.65;;
27201;SDS011;14717;46.924;15.474;2023-07-20T03:01:19;8.07;;;3.22;;
27201;SDS011;14717;46.924;15.474;2023-07-20T03:03:44;5.72;;;2.70;;
27201;SDS011;14717;46.924;15.474;2023-07-20T03:06:13;3.75;;;2.30;;
27201;SDS011;14717;46.924;15.474;2023-07-20T03:08:40;7.22;;;2.50;;
27201;SDS011;14717;46.924;15.474;2023-07-20T03:11:06;5.63;;;2.78;;
27201;SDS011;14717;46.924;15.474;2023-07-20T03:13:32;5.18;;;2.50;;
27201;SDS011;14717;46.924;15.474;2023-07-20T03:15:57;4.10;;;2.40;;
27201;SDS011;14717;46.924;15.474;2023-07-20T03:18:22;9.27;;;2.97;;
27201;SDS011;14717;46.924;15.474;2023-07-20T03:20:48;4.82;;;2.38;;
27201;SDS011;14717;46.924;15.474;2023-07-20T03:23:13;4.22;;;2.65;;
27201;SDS011;14717;46.924;15.474;2023-07-20T03:25:40;4.45;;;2.63;;
27201;SDS011;14717;46.924;15.474;2023-07-20T03:28:06;7.65;;;2.97;;
27201;SDS011;14717;46.924;15.474;2023-07-20T03:30:31;5.60;;;2.60;;
27201;SDS011;14717;46.924;15.474;2023-07-20T03:32:56;7.40;;;2.88;;
27201;SDS011;14717;46.924;15.474;2023-07-20T03:35:22;5.80;;;2.78;;
27201;SDS011;14717;46.924;15.474;2023-07-20T03:37:48;4.95;;;2.60;;
27201;SDS011;14717;46.924;15.474;2023-07-20T03:40:14;7.47;;;2.80;;
27201;SDS011;14717;46.924;15.474;2023-07-20T03:42:40;5.55;;;2.72;;
27201;SDS011;14717;46.924;15.474;2023-07-20T03:45:06;4.38;;;2.63;;
27201;SDS011;14717;46.924;15.474;2023-07-20T03:47:32;3.95;;;2.50;;
27201;SDS011;14717;46.924;15.474;2023-07-20T03:49:58;6.93;;;2.80;;
27201;SDS011;14717;46.924;15.474;2023-07-20T03:52:23;4.10;;;2.53;;
27201;SDS011;14717;46.924;15.474;2023-07-20T03:54:49;6.20;;;2.80;;
27201;SDS011;14717;46.924;15.474;2023-07-20T03:57:16;4.25;;;2.53;;
27201;SDS011;14717;46.924;15.474;2023-07-20T03:59:44;5.82;;;2.45;;
27201;SDS011;14717;46.924;15.474;2023-07-20T04:02:10;3.90;;;2.38;;
27201;SDS011;14717;46.924;15.474;2023-07-20T04:04:36;5.78;;;2.60;;
27201;SDS011;14717;46.924;15.474;2023-07-20T04:07:01;5.22;;;2.75;;
27201;SDS011;14717;46.924;15.474;2023-07-20T04:09:26;3.97;;;2.20;;
27201;SDS011;14717;46.924;15.474;2023-07-20T04:11:52;4.53;;;2.53;;
27201;SDS011;14717;46.924;15.474;2023-07-20T04:14:17;4.43;;;2.55;;
27201;SDS011;14717;46.924;15.474;2023-07-20T04:16:42;4.53;;;2.53;;
27201;SDS011;14717;46.924;15.474;2023-07-20T04:19:08;9.35;;;3.08;;
27201;SDS011;14717;46.924;15.474;2023-07-20T04:21:39;7.07;;;2.60;;
27201;SDS011;14717;46.924;15.474;2023-07-20T04:26:31;3.97;;;2.33;;
27201;SDS011;14717;46.924;15.474;2023-07-20T04:28:56;5.38;;;2.63;;
27201;SDS011;14717;46.924;15.474;2023-07-20T04:31:24;7.00;;;3.28;;
27201;SDS011;14717;46.924;15.474;2023-07-20T04:33:49;7.40;;;3.30;;
27201;SDS011;14717;46.924;15.474;2023-07-20T04:36:15;8.07;;;2.75;;
27201;SDS011;14717;46.924;15.474;2023-07-20T04:38:44;4.90;;;2.65;;
27201;SDS011;14717;46.924;15.474;2023-07-20T04:41:10;4.40;;;2.60;;
27201;SDS011;14717;46.924;15.474;2023-07-20T04:43:37;5.38;;;2.83;;
27201;SDS011;14717;46.924;15.474;2023-07-20T04:46:06;4.68;;;2.53;;
27201;SDS011;14717;46.924;15.474;2023-07-20T04:48:31;5.60;;;2.60;;
27201;SDS011;14717;46.924;15.474;2023-07-20T04:50:57;5.18;;;2.25;;
27201;SDS011;14717;46.924;15.474;2023-07-20T04:53:22;4.53;;;2.58;;
27201;SDS011;14717;46.924;15.474;2023-07-20T04:55:48;9.25;;;3.05;;
27201;SDS011;14717;46.924;15.474;2023-07-20T04:58:19;5.03;;;2.75;;
27201;SDS011;14717;46.924;15.474;2023-07-20T05:00:45;5.70;;;2.80;;
27201;SDS011;14717;46.924;15.474;2023-07-20T05:03:11;5.72;;;2.35;;
27201;SDS011;14717;46.924;15.474;2023-07-20T05:05:36;5.93;;;2.80;;
27201;SDS011;14717;46.924;15.474;2023-07-20T05:08:03;4.97;;;2.65;;
27201;SDS011;14717;46.924;15.474;2023-07-20T05:10:29;5.38;;;2.47;;
27201;SDS011;14717;46.924;15.474;2023-07-20T05:12:54;6.90;;;2.88;;
27201;SDS011;14717;46.924;15.474;2023-07-20T05:15:20;5.65;;;2.65;;
27201;SDS011;14717;46.924;15.474;2023-07-20T05:17:45;6.07;;;2.67;;
27201;SDS011;14717;46.924;15.474;2023-07-20T05:20:10;7.63;;;3.03;;
27201;SDS011;14717;46.924;15.474;2023-07-20T05:22:37;4.50;;;2.30;;
27201;SDS011;14717;46.924;15.474;2023-07-20T05:25:05;5.75;;;2.80;;
27201;SDS011;14717;46.924;15.474;2023-07-20T05:27:38;5.05;;;2.42;;
27201;SDS011;14717;46.924;15.474;2023-07-20T05:30:05;4.18;;;2.40;;
27201;SDS011;14717;46.924;15.474;2023-07-20T05:32:32;5.22;;;2.38;;
27201;SDS011;14717;46.924;15.474;2023-07-20T05:34:58;7.22;;;2.42;;
27201;SDS011;14717;46.924;15.474;2023-07-20T05:37:23;7.70;;;2.72;;
27201;SDS011;14717;46.924;15.474;2023-07-20T05:39:48;5.82;;;2.63;;
27201;SDS011;14717;46.924;15.474;2023-07-20T05:42:14;5.13;;;2.58;;
27201;SDS011;14717;46.924;15.474;2023-07-20T05:44:39;6.88;;;2.47;;
27201;SDS011;14717;46.924;15.474;2023-07-20T05:47:06;5.53;;;2.60;;
27201;SDS011;14717;46.924;15.474;2023-07-20T05:49:31;7.53;;;2.75;;
27201;SDS011;14717;46.924;15.474;2023-07-20T05:51:57;5.32;;;2.60;;
27201;SDS011;14717;46.924;15.474;2023-07-20T05:54:25;3.70;;;2.20;;
27201;SDS011;14717;46.924;15.474;2023-07-20T05:56:50;6.75;;;3.10;;
27201;SDS011;14717;46.924;15.474;2023-07-20T05:59:16;5.70;;;2.80;;
27201;SDS011;14717;46.924;15.474;2023-07-20T06:01:41;5.75;;;2.80;;
27201;SDS011;14717;46.924;15.474;2023-07-20T06:04:07;4.35;;;2.50;;
27201;SDS011;14717;46.924;15.474;2023-07-20T06:06:33;5.93;;;2.40;;
27201;SDS011;14717;46.924;15.474;2023-07-20T06:08:59;5.85;;;2.80;;
27201;SDS011;14717;46.924;15.474;2023-07-20T06:11:28;5.03;;;2.83;;
27201;SDS011;14717;46.924;15.474;2023-07-20T06:13:55;6.13;;;2.33;;
27201;SDS011;14717;46.924;15.474;2023-07-20T06:16:21;5.82;;;2.42;;
27201;SDS011;14717;46.924;15.474;2023-07-20T06:18:46;3.97;;;2.20;;
27201;SDS011;14717;46.924;15.474;2023-07-20T06:21:11;6.47;;;3.17;;
27201;SDS011;14717;46.924;15.474;2023-07-20T06:23:37;5.13;;;2.47;;
27201;SDS011;14717;46.924;15.474;2023-07-20T06:26:02;4.80;;;2.63;;
27201;SDS011;14717;46.924;15.474;2023-07-20T06:28:28;4.30;;;2.70;;
27201;SDS011;14717;46.924;15.474;2023-07-20T06:30:58;3.72;;;2.22;;
27201;SDS011;14717;46.924;15.474;2023-07-20T06:33:25;6.15;;;2.42;;
27201;SDS011;14717;46.924;15.474;2023-07-20T06:35:50;7.03;;;2.45;;
27201;SDS011;14717;46.924;15.474;2023-07-20T06:38:17;4.70;;;2.55;;
27201;SDS011;14717;46.924;15.474;2023-07-20T06:40:42;4.65;;;2.38;;
27201;SDS011;14717;46.924;15.474;2023-07-20T06:43:08;7.30;;;2.25;;
27201;SDS011;14717;46.924;15.474;2023-07-20T06:45:33;5.90;;;2.63;;
27201;SDS011;14717;46.924;15.474;2023-07-20T06:47:59;5.07;;;2.35;;
27201;SDS011;14717;46.924;15.474;2023-07-20T06:50:24;6.85;;;2.50;;
27201;SDS011;14717;46.924;15.474;2023-07-20T06:52:50;12.18;;;2.78;;
27201;SDS011;14717;46.924;15.474;2023-07-20T06:55:15;4.50;;;2.80;;
27201;SDS011;14717;46.924;15.474;2023-07-20T06:57:40;4.22;;;2.28;;
27201;SDS011;14717;46.924;15.474;2023-07-20T07:00:06;4.68;;;2.50;;
27201;SDS011;14717;46.924;15.474;2023-07-20T07:02:32;4.45;;;2.60;;
27201;SDS011;14717;46.924;15.474;2023-07-20T07:04:57;4.90;;;2.53;;
27201;SDS011;14717;46.924;15.474;2023-07-20T07:07:23;4.53;;;2.78;;
27201;SDS011;14717;46.924;15.474;2023-07-20T07:09:48;6.00;;;2.50;;
27201;SDS011;14717;46.924;15.474;2023-07-20T07:12:13;9.75;;;2.50;;
27201;SDS011;14717;46.924;15.474;2023-07-20T07:14:39;5.93;;;2.60;;
27201;SDS011;14717;46.924;15.474;2023-07-20T07:17:04;6.93;;;2.47;;
27201;SDS011;14717;46.924;15.474;2023-07-20T07:19:30;5.72;;;2.55;;
27201;SDS011;14717;46.924;15.474;2023-07-20T07:21:55;4.57;;;2.53;;
27201;SDS011;14717;46.924;15.474;2023-07-20T07:24:20;4.45;;;2.30;;
27201;SDS011;14717;46.924;15.474;2023-07-20T07:26:46;5.97;;;2.80;;
27201;SDS011;14717;46.924;15.474;2023-07-20T07:29:11;5.05;;;2.50;;
27201;SDS011;14717;46.924;15.474;2023-07-20T07:31:37;6.72;;;2.85;;
27201;SDS011;14717;46.924;15.474;2023-07-20T07:34:03;5.18;;;2.75;;
27201;SDS011;14717;46.924;15.474;2023-07-20T07:36:29;5.63;;;2.50;;
27201;SDS011;14717;46.924;15.474;2023-07-20T07:38:55;4.57;;;2.40;;
27201;SDS011;14717;46.924;15.474;2023-07-20T07:41:20;7.78;;;2.95;;
27201;SDS011;14717;46.924;15.474;2023-07-20T07:43:46;4.68;;;2.40;;
27201;SDS011;14717;46.924;15.474;2023-07-20T07:46:11;4.03;;;2.15;;
27201;SDS011;14717;46.924;15.474;2023-07-20T07:48:37;4.38;;;2.25;;
27201;SDS011;14717;46.924;15.474;2023-07-20T07:51:02;4.65;;;2.30;;
27201;SDS011;14717;46.924;15.474;2023-07-20T07:53:28;4.60;;;2.60;;
27201;SDS011;14717;46.924;15.474;2023-07-20T07:55:53;4.90;;;2.72;;
27201;SDS011;14717;46.924;15.474;2023-07-20T07:58:19;5.15;;;2.58;;
27201;SDS011;14717;46.924;15.474;2023-07-20T08:00:44;4.05;;;2.28;;
27201;SDS011;14717;46.924;15.474;2023-07-20T08:03:10;4.38;;;2.47;;
27201;SDS011;14717;46.924;15.474;2023-07-20T08:05:35;6.22;;;2.40;;
27201;SDS011;14717;46.924;15.474;2023-07-20T08:08:01;6.25;;;2.47;;
27201;SDS011;14717;46.924;15.474;2023-07-20T08:10:28;5.20;;;2.42;;
27201;SDS011;14717;46.924;15.474;2023-07-20T08:12:54;5.82;;;2.60;;
27201;SDS011;14717;46.924;15.474;2023-07-20T08:15:19;5.95;;;2.88;;
27201;SDS011;14717;46.924;15.474;2023-07-20T08:17:45;5.22;;;2.63;;
27201;SDS011;14717;46.924;15.474;2023-07-20T08:20:11;5.28;;;2.30;;
27201;SDS011;14717;46.924;15.474;2023-07-20T08:22:38;3.55;;;2.05;;
27201;SDS011;14717;46.924;15.474;2023-07-20T08:25:04;5.68;;;2.25;;
27201;SDS011;14717;46.924;15.474;2023-07-20T08:27:30;4.30;;;2.63;;
27201;SDS011;14717;46.924;15.474;2023-07-20T08:29:56;4.65;;;2.40;;
27201;SDS011;14717;46.924;15.474;2023-07-20T08:32:21;4.97;;;2.45;;
27201;SDS011;14717;46.924;15.474;2023-07-20T08:34:47;6.07;;;2.53;;
27201;SDS011;14717;46.924;15.474;2023-07-20T08:37:12;4.10;;;2.28;;
27201;SDS011;14717;46.924;15.474;2023-07-20T08:39:37;5.00;;;2.63;;
27201;SDS011;14717;46.924;15.474;2023-07-20T08:42:03;5.35;;;2.85;;
27201;SDS011;14717;46.924;15.474;2023-07-20T08:44:32;4.00;;;2.55;;
27201;SDS011;14717;46.924;15.474;2023-07-20T08:46:58;5.28;;;3.05;;
27201;SDS011;14717;46.924;15.474;2023-07-20T08:49:27;5.00;;;2.47;;
27201;SDS011;14717;46.924;15.474;2023-07-20T08:51:52;5.15;;;2.92;;
27201;SDS011;14717;46.924;15.474;2023-07-20T08:54:18;4.80;;;2.40;;
27201;SDS011;14717;46.924;15.474;2023-07-20T08:56:44;4.25;;;2.38;;
27201;SDS011;14717;46.924;15.474;2023-07-20T08:59:12;4.68;;;2.88;;
27201;SDS011;14717;46.924;15.474;2023-07-20T09:01:41;5.63;;;2.83;;
27201;SDS011;14717;46.924;15.474;2023-07-20T09:04:08;5.72;;;2.83;;
27201;SDS011;14717;46.924;15.474;2023-07-20T09:06:34;4.57;;;2.60;;
27201;SDS011;14717;46.924;15.474;2023-07-20T09:09:00;5.55;;;2.33;;
27201;SDS011;14717;46.924;15.474;2023-07-20T09:11:25;5.40;;;2.83;;
27201;SDS011;14717;46.924;15.474;2023-07-20T09:14:07;4.18;;;2.35;;
27201;SDS011;14717;46.924;15.474;2023-07-20T09:16:50;6.00;;;2.70;;
27201;SDS011;14717;46.924;15.474;2023-07-20T09:19:18;4.50;;;2.65;;
27201;SDS011;14717;46.924;15.474;2023-07-20T09:21:47;4.68;;;2.63;;
27201;SDS011;14717;46.924;15.474;2023-07-20T09:24:14;5.05;;;2.55;;
27201;SDS011;14717;46.924;15.474;2023-07-20T09:26:41;4.78;;;2.60;;
27201;SDS011;14717;46.924;15.474;2023-07-20T09:29:08;5.05;;;2.70;;
27201;SDS011;14717;46.924;15.474;2023-07-20T09:31:36;4.65;;;2.42;;
27201;SDS011;14717;46.924;15.474;2023-07-20T09:34:03;4.65;;;2.70;;
27201;SDS011;14717;46.924;15.474;2023-07-20T09:36:33;5.50;;;2.70;;
27201;SDS011;14717;46.924;15.474;2023-07-20T09:39:02;3.90;;;2.40;;
27201;SDS011;14717;46.924;15.474;2023-07-20T09:41:29;5.85;;;2.50;;
27201;SDS011;14717;46.924;15.474;2023-07-20T09:43:55;4.88;;;2.92;;
27201;SDS011;14717;46.924;15.474;2023-07-20T09:46:21;4.95;;;2.50;;
27201;SDS011;14717;46.924;15.474;2023-07-20T09:48:53;6.93;;;2.83;;
27201;SDS011;14717;46.924;15.474;2023-07-20T09:51:22;4.22;;;2.65;;
27201;SDS011;14717;46.924;15.474;2023-07-20T09:53:49;5.70;;;2.40;;
27201;SDS011;14717;46.924;15.474;2023-07-20T09:56:17;7.03;;;2.70;;
27201;SDS011;14717;46.924;15.474;2023-07-20T09:58:46;5.15;;;2.50;;
27201;SDS011;14717;46.924;15.474;2023-07-20T10:01:13;4.43;;;2.65;;
27201;SDS011;14717;46.924;15.474;2023-07-20T10:03:43;5.03;;;2.33;;
27201;SDS011;14717;46.924;15.474;2023-07-20T10:06:13;3.83;;;2.40;;
27201;SDS011;14717;46.924;15.474;2023-07-20T10:08:42;3.60;;;2.28;;
27201;SDS011;14717;46.924;15.474;2023-07-20T10:11:09;4.28;;;2.33;;
27201;SDS011;14717;46.924;15.474;2023-07-20T10:13:37;4.80;;;2.65;;
27201;SDS011;14717;46.924;15.474;2023-07-20T10:16:09;7.45;;;2.80;;
27201;SDS011;14717;46.924;15.474;2023-07-20T10:19:01;5.65;;;2.65;;
27201;SDS011;14717;46.924;15.474;2023-07-20T10:21:56;4.63;;;2.72;;
27201;SDS011;14717;46.924;15.474;2023-07-20T10:24:26;4.70;;;2.78;;
27201;SDS011;14717;46.924;15.474;2023-07-20T10:26:53;4.15;;;2.30;;
27201;SDS011;14717;46.924;15.474;2023-07-20T10:29:20;4.15;;;2.58;;
27201;SDS011;14717;46.924;15.474;2023-07-20T10:31:47;3.92;;;2.47;;
27201;SDS011;14717;46.924;15.474;2023-07-20T10:34:13;3.88;;;2.22;;
27201;SDS011;14717;46.924;15.474;2023-07-20T10:36:45;4.88;;;2.47;;
27201;SDS011;14717;46.924;15.474;2023-07-20T10:39:21;4.20;;;1.83;;
27201;SDS011;14717;46.924;15.474;2023-07-20T10:41:49;4.65;;;2.10;;
27201;SDS011;14717;46.924;15.474;2023-07-20T10:44:15;4.43;;;2.10;;
27201;SDS011;14717;46.924;15.474;2023-07-20T10:46:45;4.22;;;2.55;;
27201;SDS011;14717;46.924;15.474;2023-07-20T10:49:11;3.17;;;1.77;;
27201;SDS011;14717;46.924;15.474;2023-07-20T10:51:39;4.72;;;2.40;;
27201;SDS011;14717;46.924;15.474;2023-07-20T10:56:41;4.43;;;2.45;;
27201;SDS011;14717;46.924;15.474;2023-07-20T10:59:20;4.95;;;2.05;;
27201;SDS011;14717;46.924;15.474;2023-07-20T11:02:06;4.60;;;2.30;;
27201;SDS011;14717;46.924;15.474;2023-07-20T11:04:40;6.32;;;2.22;;
27201;SDS011;14717;46.924;15.474;2023-07-20T11:07:07;2.88;;;1.83;;
27201;SDS011;14717;46.924;15.474;2023-07-20T11:09:39;3.97;;;1.98;;
27201;SDS011;14717;46.924;15.474;2023-07-20T11:12:14;2.78;;;1.70;;
27201;SDS011;14717;46.924;15.474;2023-07-20T11:14:41;5.22;;;2.40;;
27201;SDS011;14717;46.924;15.474;2023-07-20T11:17:14;4.18;;;1.98;;
27201;SDS011;14717;46.924;15.474;2023-07-20T11:19:40;3.40;;;1.90;;
27201;SDS011;14717;46.924;15.474;2023-07-20T11:22:06;4.53;;;2.15;;
27201;SDS011;14717;46.924;15.474;2023-07-20T11:24:38;4.22;;;2.15;;
27201;SDS011;14717;46.924;15.474;2023-07-20T11:27:04;4.00;;;1.80;;
27201;SDS011;14717;46.924;15.474;2023-07-20T11:29:30;3.65;;;2.17;;
27201;SDS011;14717;46.924;15.474;2023-07-20T11:31:56;4.30;;;2.17;;
27201;SDS011;14717;46.924;15.474;2023-07-20T11:34:21;3.55;;;1.90;;
27201;SDS011;14717;46.924;15.474;2023-07-20T11:36:48;4.22;;;2.40;;
27201;SDS011;14717;46.924;15.474;2023-07-20T11:39:15;4.80;;;2.42;;
27201;SDS011;14717;46.924;15.474;2023-07-20T11:41:48;5.55;;;2.47;;
27201;SDS011;14717;46.924;15.474;2023-07-20T11:44:18;3.70;;;2.20;;
27201;SDS011;14717;46.924;15.474;2023-07-20T11:46:44;6.80;;;2.60;;
27201;SDS011;14717;46.924;15.474;2023-07-20T11:49:10;3.70;;;2.05;;
27201;SDS011;14717;46.924;15.474;2023-07-20T11:51:36;4.00;;;2.30;;
27201;SDS011;14717;46.924;15.474;2023-07-20T11:54:05;8.07;;;2.47;;
27201;SDS011;14717;46.924;15.474;2023-07-20T11:56:32;3.30;;;2.03;;
27201;SDS011;14717;46.924;15.474;2023-07-20T11:58:58;8.85;;;2.42;;
27201;SDS011;14717;46.924;15.474;2023-07-20T12:01:28;3.80;;;2.28;;
27201;SDS011;14717;46.924;15.474;2023-07-20T12:03:56;4.00;;;2.15;;
27201;SDS011;14717;46.924;15.474;2023-07-20T12:06:25;4.45;;;2.22;;
27201;SDS011;14717;46.924;15.474;2023-07-20T12:08:55;3.65;;;1.90;;
27201;SDS011;14717;46.924;15.474;2023-07-20T12:11:34;4.40;;;2.38;;
27201;SDS011;14717;46.924;15.474;2023-07-20T12:14:01;4.25;;;2.00;;
27201;SDS011;14717;46.924;15.474;2023-07-20T12:16:27;3.60;;;1.98;;
27201;SDS011;14717;46.924;15.474;2023-07-20T12:19:00;4.40;;;1.90;;
27201;SDS011;14717;46.924;15.474;2023-07-20T12:21:27;4.45;;;2.10;;
27201;SDS011;14717;46.924;15.474;2023-07-20T12:23:54;5.85;;;2.28;;
27201;SDS011;14717;46.924;15.474;2023-07-20T12:26:22;4.22;;;2.00;;
27201;SDS011;14717;46.924;15.474;2023-07-20T12:28:49;3.78;;;2.03;;
27201;SDS011;14717;46.924;15.474;2023-07-20T12:31:14;4.55;;;2.22;;
27201;SDS011;14717;46.924;15.474;2023-07-20T12:33:40;4.97;;;2.50;;
27201;SDS011;14717;46.924;15.474;2023-07-20T12:36:06;5.35;;;2.40;;
27201;SDS011;14717;46.924;15.474;2023-07-20T12:38:31;3.58;;;1.90;;
27201;SDS011;14717;46.924;15.474;2023-07-20T12:40:57;3.55;;;1.95;;
27201;SDS011;14717;46.924;15.474;2023-07-20T12:43:23;2.92;;;1.92;;
27201;SDS011;14717;46.924;15.474;2023-07-20T12:45:49;3.28;;;2.17;;
27201;SDS011;14717;46.924;15.474;2023-07-20T12:48:14;4.55;;;2.20;;
27201;SDS011;14717;46.924;15.474;2023-07-20T12:50:40;5.80;;;2.30;;
27201;SDS011;14717;46.924;15.474;2023-07-20T12:53:05;4.25;;;2.10;;
27201;SDS011;14717;46.924;15.474;2023-07-20T12:55:31;3.58;;;1.98;;
27201;SDS011;14717;46.924;15.474;2023-07-20T12:57:56;4.93;;;2.28;;
27201;SDS011;14717;46.924;15.474;2023-07-20T13:00:22;5.72;;;2.15;;
27201;SDS011;14717;46.924;15.474;2023-07-20T13:02:48;5.65;;;2.25;;
27201;SDS011;14717;46.924;15.474;2023-07-20T13:05:14;3.83;;;1.98;;
27201;SDS011;14717;46.924;15.474;2023-07-20T13:07:40;4.57;;;2.10;;
27201;SDS011;14717;46.924;15.474;2023-07-20T13:10:06;3.50;;;1.83;;
27201;SDS011;14717;46.924;15.474;2023-07-20T13:12:33;6.30;;;1.95;;
27201;SDS011;14717;46.924;15.474;2023-07-20T13:14:59;5.05;;;2.58;;
27201;SDS011;14717;46.924;15.474;2023-07-20T13:17:27;3.63;;;1.90;;
27201;SDS011;14717;46.924;15.474;2023-07-20T13:19:54;4.60;;;1.92;;
27201;SDS011;14717;46.924;15.474;2023-07-20T13:22:20;7.47;;;2.08;;
27201;SDS011;14717;46.924;15.474;2023-07-20T13:24:46;3.53;;;2.15;;
27201;SDS011;14717;46.924;15.474;2023-07-20T13:27:15;5.20;;;1.90;;
27201;SDS011;14717;46.924;15.474;2023-07-20T13:29:41;4.70;;;1.85;;
27201;SDS011;14717;46.924;15.474;2023-07-20T13:32:07;4.65;;;2.30;;
27201;SDS011;14717;46.924;15.474;2023-07-20T13:34:33;3.15;;;1.90;;
27201;SDS011;14717;46.924;15.474;2023-07-20T13:36:58;3.67;;;1.92;;
27201;SDS011;14717;46.924;15.474;2023-07-20T13:39:24;3.88;;;1.67;;
27201;SDS011;14717;46.924;15.474;2023-07-20T13:41:52;4.47;;;2.03;;
27201;SDS011;14717;46.924;15.474;2023-07-20T13:44:17;3.45;;;1.73;;
27201;SDS011;14717;46.924;15.474;2023-07-20T13:46:43;2.92;;;1.90;;
27201;SDS011;14717;46.924;15.474;2023-07-20T13:49:08;3.08;;;1.40;;
27201;SDS011;14717;46.924;15.474;2023-07-20T13:51:34;3.35;;;1.70;;
27201;SDS011;14717;46.924;15.474;2023-07-20T13:53:59;5.38;;;2.10;;
27201;SDS011;14717;46.924;15.474;2023-07-20T13:56:26;2.97;;;1.60;;
27201;SDS011;14717;46.924;15.474;2023-07-20T13:58:52;2.22;;;1.30;;
27201;SDS011;14717;46.924;15.474;2023-07-20T14:01:17;3.00;;;1.70;;
27201;SDS011;14717;46.924;15.474;2023-07-20T14:03:43;3.85;;;1.77;;
27201;SDS011;14717;46.924;15.474;2023-07-20T14:06:09;3.85;;;2.03;;
27201;SDS011;14717;46.924;15.474;2023-07-20T14:08:34;3.25;;;1.98;;
27201;SDS011;14717;46.924;15.474;2023-07-20T14:11:00;3.42;;;1.88;;
27201;SDS011;14717;46.924;15.474;2023-07-20T14:13:25;3.53;;;1.70;;
27201;SDS011;14717;46.924;15.474;2023-07-20T14:15:51;3.08;;;1.67;;
27201;SDS011;14717;46.924;15.474;2023-07-20T14:18:16;3.30;;;1.63;;
27201;SDS011;14717;46.924;15.474;2023-07-20T14:20:42;2.58;;;1.65;;
27201;SDS011;14717;46.924;15.474;2023-07-20T14:23:09;2.67;;;1.70;;
27201;SDS011;14717;46.924;15.474;2023-07-20T14:25:34;3.63;;;1.90;;
27201;SDS011;14717;46.924;15.474;2023-07-20T14:28:01;3.67;;;2.10;;
27201;SDS011;14717;46.924;15.474;2023-07-20T14:30:26;3.50;;;1.75;;
27201;SDS011;14717;46.924;15.474;2023-07-20T14:32:52;3.50;;;2.05;;
27201;SDS011;14717;46.924;15.474;2023-07-20T14:35:17;5.22;;;1.98;;
27201;SDS011;14717;46.924;15.474;2023-07-20T14:37:42;3.55;;;1.60;;
27201;SDS011;14717;46.924;15.474;2023-07-20T14:40:12;3.10;;;1.98;;
27201;SDS011;14717;46.924;15.474;2023-07-20T14:42:37;4.03;;;1.95;;
27201;SDS011;14717;46.924;15.474;2023-07-20T14:45:03;3.55;;;1.92;;